Time;durP1;ratioP1;P1;durP2;ratioP2;P2;SDS_P1;SDS_P2;PMS_P1;PMS_P2;Temp;Humidity;BMP_temperature;BMP_pressure;BME280_temperature;BME280_humidity;BME280_pressure;Samples;Min_cycle;Max_cycle;Signal;HPM_P1;HPM_P2
2022/06/30 00:01:24;;;;;;;3.45;2.08;;;;;;;21.96;62.26;99472.09;5050730;28;20055;-94
2022/06/30 00:03:49;;;;;;;4.85;2.00;;;;;;;22.25;61.65;99521.22;5027501;28;20029;-94
2022/06/30 00:06:15;;;;;;;4.35;2.17;;;;;;;21.92;61.75;99468.78;5051821;28;20562;-94
2022/06/30 00:08:40;;;;;;;2.78;2.20;;;;;;;22.04;61.36;99471.59;5051560;28;20029;-94
2022/06/30 00:11:09;;;;;;;3.15;2.03;;;;;;;22.08;60.74;99465.94;5052868;28;20494;-94
2022/06/30 00:13:39;;;;;;;3.28;2.28;;;;;;;22.31;60.16;99482.38;5030659;28;20033;-94
2022/06/30 00:16:07;;;;;;;2.45;1.75;;;;;;;22.40;60.43;99481.75;5018560;28;20041;-94
2022/06/30 00:18:33;;;;;;;3.03;1.85;;;;;;;22.38;60.75;99464.84;5035444;28;20033;-94
2022/06/30 00:20:59;;;;;;;4.40;2.30;;;;;;;22.67;60.63;99494.28;5051781;28;20057;-92
2022/06/30 00:23:24;;;;;;;5.82;2.20;;;;;;;22.57;61.28;99479.72;5052275;28;20065;-93
2022/06/30 00:25:50;;;;;;;4.30;1.80;;;;;;;22.52;61.56;99494.38;5034302;28;20458;-94
2022/06/30 00:28:18;;;;;;;3.80;2.28;;;;;;;22.35;61.24;99489.25;5034356;28;20025;-93
2022/06/30 00:30:45;;;;;;;3.33;2.22;;;;;;;22.39;61.20;99487.25;5052976;28;20124;-94
2022/06/30 00:33:10;;;;;;;3.60;2.20;;;;;;;22.59;61.12;99519.00;5031117;28;20033;-93
2022/06/30 00:35:35;;;;;;;2.72;2.00;;;;;;;22.62;61.05;99513.41;5029543;28;20060;-94
2022/06/30 00:38:02;;;;;;;3.08;2.08;;;;;;;22.51;60.94;99503.38;5031465;28;20052;-93
2022/06/30 00:40:27;;;;;;;4.78;2.15;;;;;;;22.55;60.69;99495.13;5032098;28;20483;-91
2022/06/30 00:42:53;;;;;;;4.35;2.08;;;;;;;22.17;61.11;99453.72;5032814;28;20048;-93
2022/06/30 00:45:18;;;;;;;4.38;2.03;;;;;;;22.47;62.05;99514.44;5034494;28;20155;-94
2022/06/30 00:47:44;;;;;;;3.85;2.10;;;;;;;22.22;60.77;99478.44;5032911;28;20529;-92
2022/06/30 00:50:09;;;;;;;3.55;1.95;;;;;;;22.08;61.69;99486.56;5034206;28;20122;-95
2022/06/30 00:52:36;;;;;;;4.57;2.88;;;;;;;21.88;62.00;99445.75;5039825;28;20072;-94
2022/06/30 00:55:05;;;;;;;3.55;2.47;;;;;;;22.13;62.43;99477.22;5035232;28;20475;-94
2022/06/30 00:57:32;;;;;;;3.40;1.92;;;;;;;22.17;63.30;99486.81;5031694;28;20059;-93
2022/06/30 00:59:58;;;;;;;2.47;1.75;;;;;;;22.09;63.19;99501.69;5033857;28;20126;-92
2022/06/30 01:02:25;;;;;;;4.18;2.40;;;;;;;21.98;62.98;99471.06;5035353;28;20035;-93
2022/06/30 01:04:53;;;;;;;3.15;1.80;;;;;;;21.88;63.36;99461.88;5015928;28;20033;-92
2022/06/30 01:07:21;;;;;;;4.45;1.90;;;;;;;21.89;63.13;99468.97;5033644;28;20423;-93
2022/06/30 01:12:43;;;;;;;7.20;3.30;;;;;;;21.79;63.98;99474.06;5051964;28;20052;-93
2022/06/30 01:15:15;;;;;;;3.47;2.17;;;;;;;21.97;64.34;99498.88;5035746;28;20048;-93
2022/06/30 01:17:41;;;;;;;3.20;1.90;;;;;;;21.76;63.22;99463.53;5033588;28;20127;-93
2022/06/30 01:20:07;;;;;;;3.78;2.38;;;;;;;21.85;63.52;99499.66;5034314;28;20037;-93
2022/06/30 01:22:33;;;;;;;4.60;2.33;;;;;;;21.69;64.06;99499.81;5032330;28;20033;-92
2022/06/30 01:24:58;;;;;;;3.33;1.67;;;;;;;21.50;63.69;99501.94;5051385;28;20423;-94
2022/06/30 01:27:25;;;;;;;3.55;2.20;;;;;;;21.45;64.16;99478.03;5033306;28;20047;-94
2022/06/30 01:29:51;;;;;;;3.60;2.40;;;;;;;21.46;64.16;99482.44;5034463;28;20425;-95
2022/06/30 01:32:17;;;;;;;4.38;2.35;;;;;;;21.58;64.04;99470.97;5033509;28;20032;-95
2022/06/30 01:34:43;;;;;;;4.30;2.33;;;;;;;21.71;64.11;99507.75;5034460;28;20035;-95
2022/06/30 01:37:08;;;;;;;4.13;2.70;;;;;;;21.75;63.57;99485.09;5033775;28;20415;-94
2022/06/30 01:39:34;;;;;;;4.75;2.70;;;;;;;21.87;63.47;99510.31;5033512;28;20033;-93
2022/06/30 01:42:00;;;;;;;3.97;2.13;;;;;;;21.53;63.67;99453.44;5051985;28;20040;-94
2022/06/30 01:44:27;;;;;;;4.18;2.33;;;;;;;21.66;63.56;99450.81;5033880;28;20064;-94
2022/06/30 01:46:52;;;;;;;4.13;2.50;;;;;;;21.76;64.31;99509.16;5033053;28;20436;-92
2022/06/30 01:49:18;;;;;;;5.13;2.08;;;;;;;21.72;64.55;99498.72;5051199;28;20407;-92
2022/06/30 01:51:44;;;;;;;3.25;2.15;;;;;;;21.40;65.06;99474.78;5033810;28;20041;-94
2022/06/30 01:54:10;;;;;;;3.58;2.17;;;;;;;21.45;63.95;99491.44;5055059;28;20031;-91
2022/06/30 01:56:36;;;;;;;3.13;1.92;;;;;;;21.40;62.52;99467.59;5033093;28;20486;-94
2022/06/30 01:59:03;;;;;;;3.47;2.22;;;;;;;21.57;63.02;99522.91;5021434;28;20123;-94
2022/06/30 02:01:29;;;;;;;3.47;2.22;;;;;;;21.47;63.19;99505.63;5050861;28;20033;-93
2022/06/30 02:03:54;;;;;;;3.72;2.58;;;;;;;21.45;63.18;99494.97;5034169;28;21029;-95
2022/06/30 02:06:20;;;;;;;3.58;2.35;;;;;;;21.66;62.34;99509.84;5034532;28;20495;-94
2022/06/30 02:08:45;;;;;;;3.92;2.35;;;;;;;21.56;61.99;99480.06;5033747;28;20032;-94
2022/06/30 02:11:11;;;;;;;6.68;1.92;;;;;;;21.31;63.20;99500.38;5033195;28;20486;-94
2022/06/30 02:13:36;;;;;;;3.65;2.28;;;;;;;21.32;63.03;99507.47;5050286;28;20049;-94
2022/06/30 02:16:02;;;;;;;4.70;2.30;;;;;;;21.16;62.63;99496.81;5033185;28;20037;-93
2022/06/30 02:18:28;;;;;;;3.60;2.15;;;;;;;20.97;63.14;99458.72;5033247;28;20033;-94
2022/06/30 02:20:53;;;;;;;3.83;2.53;;;;;;;21.33;63.76;99509.16;5036385;28;20029;-94
2022/06/30 02:23:20;;;;;;;3.75;2.08;;;;;;;21.31;63.32;99472.69;5054210;28;20041;-94
2022/06/30 02:25:45;;;;;;;5.63;2.38;;;;;;;21.34;63.01;99507.38;5036665;28;20039;-92
2022/06/30 02:28:11;;;;;;;3.97;2.35;;;;;;;21.18;63.76;99478.81;5016868;28;20029;-94
2022/06/30 02:30:37;;;;;;;4.05;2.67;;;;;;;21.16;64.25;99486.09;5020274;28;20479;-93
2022/06/30 02:33:03;;;;;;;2.97;2.33;;;;;;;21.45;63.81;99519.13;5037279;28;20064;-93
2022/06/30 02:35:29;;;;;;;4.53;2.00;;;;;;;21.44;63.44;99501.34;5020146;28;20037;-94
2022/06/30 02:37:56;;;;;;;4.60;1.90;;;;;;;21.41;63.86;99504.22;5017309;28;20124;-93
2022/06/30 02:40:21;;;;;;;6.22;3.15;;;;;;;21.42;63.33;99487.13;5033605;28;20049;-93
2022/06/30 02:42:47;;;;;;;3.40;2.03;;;;;;;21.50;62.59;99507.28;5042238;28;20082;-93
2022/06/30 02:45:13;;;;;;;5.85;2.95;;;;;;;21.18;61.41;99476.13;5054589;28;20033;-93
2022/06/30 02:47:41;;;;;;;3.22;2.00;;;;;;;21.02;63.02;99505.75;5053970;28;20041;-93
2022/06/30 02:50:09;;;;;;;3.20;1.98;;;;;;;21.11;62.22;99496.25;5036943;28;20021;-91
2022/06/30 02:52:36;;;;;;;6.22;2.83;;;;;;;21.26;62.55;99532.84;5030669;28;20044;-94
2022/06/30 02:55:03;;;;;;;4.22;2.70;;;;;;;21.10;63.52;99495.38;5033972;28;20563;-90
2022/06/30 02:57:28;;;;;;;4.65;2.30;;;;;;;21.29;63.86;99519.25;5032612;28;20037;-91
2022/06/30 02:59:54;;;;;;;3.83;2.40;;;;;;;21.08;64.01;99502.66;5043907;28;20040;-91
2022/06/30 03:02:19;;;;;;;3.65;2.30;;;;;;;20.94;64.35;99526.78;5035103;28;20106;-91
2022/06/30 03:04:45;;;;;;;7.40;3.10;;;;;;;21.11;63.18;99533.78;5040146;28;20034;-91
2022/06/30 03:07:11;;;;;;;3.60;2.30;;;;;;;20.85;63.56;99517.47;5018230;28;20423;-91
2022/06/30 03:09:36;;;;;;;3.50;2.40;;;;;;;20.81;64.59;99521.28;5015793;28;20496;-91
2022/06/30 03:12:02;;;;;;;2.50;1.85;;;;;;;20.78;64.50;99502.72;5034791;28;20056;-89
2022/06/30 03:14:28;;;;;;;2.88;2.22;;;;;;;20.82;64.82;99538.22;5015649;28;20053;-94
2022/06/30 03:16:54;;;;;;;3.08;2.25;;;;;;;20.69;65.02;99519.34;5033416;28;20033;-91
2022/06/30 03:19:19;;;;;;;4.30;2.33;;;;;;;20.86;65.05;99534.41;5033721;28;20417;-90
2022/06/30 03:21:45;;;;;;;2.80;2.30;;;;;;;20.69;64.63;99492.56;5034205;28;20071;-90
2022/06/30 03:24:10;;;;;;;3.08;2.15;;;;;;;20.94;64.82;99545.53;5033881;28;20024;-92
2022/06/30 03:26:36;;;;;;;4.28;2.38;;;;;;;20.92;64.36;99532.22;5016931;28;20037;-94
2022/06/30 03:29:03;;;;;;;2.67;2.13;;;;;;;20.80;65.18;99524.06;5015887;28;20807;-92
2022/06/30 03:31:29;;;;;;;4.43;2.60;;;;;;;20.95;65.20;99552.63;5031711;28;20056;-94
2022/06/30 03:33:54;;;;;;;4.35;2.85;;;;;;;20.79;65.70;99547.34;5014850;28;20042;-91
2022/06/30 03:36:20;;;;;;;3.22;2.25;;;;;;;20.69;64.62;99496.09;5015787;28;20034;-91
2022/06/30 03:38:45;;;;;;;2.35;1.83;;;;;;;20.67;63.57;99506.03;5033725;28;20037;-90
2022/06/30 03:41:11;;;;;;;2.97;1.67;;;;;;;20.81;62.59;99528.50;5033405;28;20030;-92
2022/06/30 03:43:36;;;;;;;2.38;1.70;;;;;;;20.68;63.94;99537.25;5032268;28;20040;-91
2022/06/30 03:46:02;;;;;;;3.00;2.05;;;;;;;20.83;65.36;99543.50;5032917;28;20088;-91
2022/06/30 03:48:27;;;;;;;2.83;1.92;;;;;;;20.77;66.39;99526.94;5015671;28;20419;-86
2022/06/30 03:50:53;;;;;;;3.50;2.70;;;;;;;20.75;65.91;99519.84;5033090;28;20041;-89
2022/06/30 03:53:18;;;;;;;4.63;2.63;;;;;;;20.94;65.14;99518.72;5031566;28;20040;-88
2022/06/30 03:55:44;;;;;;;4.70;2.70;;;;;;;21.22;64.49;99522.41;5033395;28;20108;-89
2022/06/30 03:58:09;;;;;;;3.05;2.38;;;;;;;21.64;62.66;99544.84;5015478;28;20034;-90
2022/06/30 04:00:36;;;;;;;3.80;2.47;;;;;;;21.67;62.29;99544.66;5031777;28;20034;-90
2022/06/30 04:03:03;;;;;;;2.53;1.45;;;;;;;21.93;62.18;99560.91;5032528;28;20034;-89
2022/06/30 04:05:29;;;;;;;3.38;2.35;;;;;;;22.08;60.93;99519.66;5032509;28;20044;-88
2022/06/30 04:07:54;;;;;;;4.18;2.50;;;;;;;22.36;60.20;99550.09;5033115;28;20415;-87
2022/06/30 04:10:20;;;;;;;4.78;2.30;;;;;;;22.28;59.77;99517.47;5030745;28;20041;-88
2022/06/30 04:12:45;;;;;;;4.10;2.13;;;;;;;22.43;59.86;99515.59;5025403;28;20033;-89
2022/06/30 04:15:11;;;;;;;4.53;2.55;;;;;;;22.48;58.95;99519.72;5048488;28;20801;-91
2022/06/30 04:17:37;;;;;;;3.45;2.22;;;;;;;22.83;59.06;99553.22;5051914;28;20120;-88
2022/06/30 04:20:04;;;;;;;3.15;2.30;;;;;;;22.42;57.53;99495.94;5051830;28;20490;-88
2022/06/30 04:22:31;;;;;;;4.10;2.60;;;;;;;22.60;57.89;99519.84;5033693;28;20079;-88
2022/06/30 04:24:56;;;;;;;2.70;1.88;;;;;;;22.86;56.62;99532.38;5052625;28;20056;-89
2022/06/30 04:27:22;;;;;;;2.80;1.60;;;;;;;23.28;55.96;99555.56;5052133;28;20193;-88
2022/06/30 04:29:48;;;;;;;3.13;2.13;;;;;;;23.59;56.62;99559.66;5050679;28;20053;-89
2022/06/30 04:34:57;;;;;;;6.03;1.57;;;;;;;23.77;54.04;99539.50;5039225;28;20048;-90
2022/06/30 04:37:23;;;;;;;3.13;2.15;;;;;;;23.99;54.59;99555.94;5051535;28;20423;-90
2022/06/30 04:39:49;;;;;;;2.20;1.70;;;;;;;23.91;57.00;99543.03;5051761;28;20037;-90
2022/06/30 04:42:14;;;;;;;6.50;2.17;;;;;;;24.00;57.16;99542.34;5051651;28;20043;-89
2022/06/30 04:44:40;;;;;;;3.58;2.65;;;;;;;23.78;58.03;99508.03;5052413;28;20021;-87
2022/06/30 04:47:05;;;;;;;3.78;2.13;;;;;;;23.85;58.18;99519.25;5052274;28;20052;-93
2022/06/30 04:49:31;;;;;;;2.75;2.38;;;;;;;23.95;55.17;99518.44;5033955;28;20039;-88
2022/06/30 04:51:56;;;;;;;3.92;3.10;;;;;;;24.37;56.00;99542.31;5052086;28;20076;-89
2022/06/30 04:54:22;;;;;;;3.78;2.58;;;;;;;24.63;54.07;99559.25;5051484;28;20043;-87
2022/06/30 04:56:47;;;;;;;3.42;1.63;;;;;;;24.36;55.50;99513.66;5051758;28;20495;-88
2022/06/30 04:59:13;;;;;;;3.05;1.92;;;;;;;24.89;54.54;99569.06;5051891;28;20116;-87
2022/06/30 05:01:38;;;;;;;2.92;1.83;;;;;;;24.92;54.99;99548.09;5052309;28;20036;-90
2022/06/30 05:04:04;;;;;;;7.05;2.92;;;;;;;25.12;55.24;99591.56;5016748;28;20044;-88
2022/06/30 05:06:29;;;;;;;13.13;3.53;;;;;;;25.05;55.00;99542.59;5051862;28;20029;-89
2022/06/30 05:08:55;;;;;;;4.40;2.67;;;;;;;25.20;53.60;99559.44;5033637;28;20446;-91
2022/06/30 05:11:20;;;;;;;6.75;2.58;;;;;;;25.07;53.99;99537.97;5051435;28;20037;-89
2022/06/30 05:13:46;;;;;;;4.15;2.42;;;;;;;25.46;52.08;99556.56;5051320;28;20524;-91
2022/06/30 05:16:11;;;;;;;3.05;2.17;;;;;;;25.59;52.12;99553.75;5033378;28;20041;-88
2022/06/30 05:18:37;;;;;;;5.03;2.00;;;;;;;25.36;52.55;99551.03;5051483;28;20028;-88
2022/06/30 05:21:02;;;;;;;4.68;2.97;;;;;;;25.92;52.07;99555.59;5051906;28;20033;-87
2022/06/30 05:23:28;;;;;;;7.57;2.72;;;;;;;26.23;50.84;99526.91;5051780;28;20037;-89
2022/06/30 05:28:37;;;;;;;4.50;2.25;;;;;;;26.61;52.07;99544.47;5051027;28;20039;-89
2022/06/30 05:31:03;;;;;;;3.05;2.33;;;;;;;27.11;50.66;99570.94;5049674;28;20037;-89
2022/06/30 05:33:28;;;;;;;3.92;2.42;;;;;;;27.29;49.23;99544.09;5050814;28;20483;-90
2022/06/30 05:35:54;;;;;;;2.90;2.15;;;;;;;27.38;49.48;99572.28;5050471;28;20047;-88
2022/06/30 05:38:20;;;;;;;5.30;3.65;;;;;;;27.48;49.37;99547.94;5051132;28;20036;-88
2022/06/30 05:40:46;;;;;;;5.28;2.17;;;;;;;27.63;47.25;99570.13;5050952;28;20044;-88
2022/06/30 05:43:16;;;;;;;4.43;2.38;;;;;;;27.43;48.80;99548.34;5051023;28;20082;-87
2022/06/30 05:45:42;;;;;;;3.25;1.95;;;;;;;27.78;46.62;99571.47;5051122;28;20498;-88
2022/06/30 05:48:07;;;;;;;2.53;1.80;;;;;;;28.15;44.61;99568.19;5050320;28;20069;-88
2022/06/30 05:50:33;;;;;;;3.42;2.67;;;;;;;28.12;44.62;99564.91;5051048;28;20554;-89
2022/06/30 05:52:59;;;;;;;4.03;2.15;;;;;;;28.22;44.86;99601.03;5031661;28;20021;-89
2022/06/30 05:55:24;;;;;;;3.67;2.63;;;;;;;28.40;44.31;99591.22;5050553;28;20418;-90
2022/06/30 05:57:56;;;;;;;8.38;2.45;;;;;;;28.66;42.52;99581.72;5033206;28;20158;-91
2022/06/30 06:00:24;;;;;;;3.47;1.92;;;;;;;29.32;42.95;99583.69;5050774;28;20021;-90
2022/06/30 06:02:49;;;;;;;3.20;2.17;;;;;;;29.01;43.28;99585.69;5051164;28;20231;-91
2022/06/30 06:05:15;;;;;;;3.78;2.47;;;;;;;28.82;43.29;99564.84;5050774;28;20529;-90
2022/06/30 06:07:41;;;;;;;3.67;2.70;;;;;;;29.03;42.57;99567.44;5051022;28;20549;-90
2022/06/30 06:10:07;;;;;;;5.60;3.38;;;;;;;29.57;42.04;99576.75;5050901;28;20040;-90
2022/06/30 06:12:33;;;;;;;3.97;3.00;;;;;;;29.62;42.84;99589.91;5032929;28;20039;-89
2022/06/30 06:14:58;;;;;;;4.65;2.58;;;;;;;29.87;40.12;99571.22;5050716;28;20430;-88
2022/06/30 06:17:24;;;;;;;4.65;2.70;;;;;;;30.13;39.72;99582.25;5050947;28;20106;-90
2022/06/30 06:19:49;;;;;;;4.40;2.97;;;;;;;30.26;40.04;99590.94;5051084;28;20029;-90
2022/06/30 06:22:15;;;;;;;4.07;2.13;;;;;;;30.52;38.88;99577.47;5050777;28;20025;-90
2022/06/30 06:24:40;;;;;;;3.95;2.40;;;;;;;30.75;36.77;99574.25;5050768;28;20491;-89
2022/06/30 06:27:06;;;;;;;4.10;2.50;;;;;;;30.91;36.67;99573.56;5050519;28;20418;-89
2022/06/30 06:29:32;;;;;;;4.47;2.80;;;;;;;31.28;36.29;99583.41;5050422;28;20079;-89
2022/06/30 06:31:57;;;;;;;5.18;3.20;;;;;;;31.27;35.61;99559.06;5050568;28;20037;-90
2022/06/30 06:34:23;;;;;;;3.65;2.40;;;;;;;31.68;36.00;99562.88;5050956;28;20033;-92
2022/06/30 06:36:48;;;;;;;3.50;2.28;;;;;;;31.39;36.56;99565.94;5050589;28;20564;-91
2022/06/30 06:39:14;;;;;;;3.70;2.20;;;;;;;31.71;36.41;99592.53;5050465;28;20043;-91
2022/06/30 06:41:39;;;;;;;4.22;2.80;;;;;;;32.01;35.78;99562.16;5050805;28;20423;-91
2022/06/30 06:44:05;;;;;;;2.83;2.13;;;;;;;31.98;35.19;99567.94;5050561;28;20037;-90
2022/06/30 06:46:32;;;;;;;5.82;2.28;;;;;;;31.89;34.90;99580.72;5050452;28;20044;-90
2022/06/30 06:49:03;;;;;;;5.35;2.20;;;;;;;31.84;37.37;99563.97;5029879;28;20037;-91
2022/06/30 06:51:29;;;;;;;3.78;2.45;;;;;;;32.63;34.47;99570.88;5050369;28;20128;-90
2022/06/30 06:53:55;;;;;;;3.15;2.38;;;;;;;32.89;34.91;99560.84;5049280;28;20041;-90
2022/06/30 06:56:21;;;;;;;2.53;1.67;;;;;;;32.66;33.55;99539.72;5050986;28;20025;-89
2022/06/30 06:58:48;;;;;;;3.17;2.10;;;;;;;32.68;33.45;99545.00;5049659;28;20029;-89
2022/06/30 07:01:13;;;;;;;3.65;2.35;;;;;;;33.06;33.11;99561.69;5050130;28;20154;-89
2022/06/30 07:03:39;;;;;;;4.15;1.98;;;;;;;33.40;31.43;99557.94;5050221;28;20067;-91
2022/06/30 07:06:05;;;;;;;4.93;2.10;;;;;;;33.19;33.11;99554.72;5033438;28;20033;-89
2022/06/30 07:08:31;;;;;;;2.60;1.90;;;;;;;33.41;30.68;99574.16;5054141;28;20041;-87
2022/06/30 07:10:57;;;;;;;3.25;2.08;;;;;;;33.48;33.13;99555.19;5053401;28;20477;-88
2022/06/30 07:13:23;;;;;;;3.00;2.05;;;;;;;34.14;32.23;99535.78;5053816;28;20112;-88
2022/06/30 07:15:49;;;;;;;3.38;1.83;;;;;;;34.34;29.37;99564.47;5053819;28;20045;-89
2022/06/30 07:18:15;;;;;;;3.53;2.53;;;;;;;33.91;29.92;99531.16;5053423;28;20388;-89
2022/06/30 07:20:40;;;;;;;2.95;2.08;;;;;;;34.50;30.64;99562.66;5053877;28;20083;-90
2022/06/30 07:23:06;;;;;;;3.13;2.05;;;;;;;34.66;30.21;99553.47;5053168;28;20497;-93
2022/06/30 07:25:31;;;;;;;3.72;2.15;;;;;;;34.88;30.39;99532.59;5035945;28;20045;-92
2022/06/30 07:27:56;;;;;;;2.70;1.83;;;;;;;34.79;32.19;99540.88;5035119;28;20450;-91
2022/06/30 07:30:23;;;;;;;2.70;1.73;;;;;;;35.07;30.02;99521.13;5053301;28;20064;-92
2022/06/30 07:32:49;;;;;;;4.05;2.40;;;;;;;35.07;31.23;99542.19;5035409;28;20025;-90
2022/06/30 07:35:14;;;;;;;2.42;1.58;;;;;;;35.52;28.86;99532.16;5053180;28;20079;-88
2022/06/30 07:37:41;;;;;;;4.60;1.50;;;;;;;35.29;28.73;99532.22;5053626;28;20116;-91
2022/06/30 07:40:08;;;;;;;5.40;3.28;;;;;;;35.35;29.13;99558.06;5053168;28;20067;-91
2022/06/30 07:42:34;;;;;;;4.85;1.92;;;;;;;34.85;28.13;99555.75;5053591;28;20029;-89
2022/06/30 07:44:59;;;;;;;2.05;1.35;;;;;;;34.55;28.43;99555.56;5053343;28;20025;-91
2022/06/30 07:47:25;;;;;;;2.63;1.77;;;;;;;34.76;27.44;99527.56;5053491;28;20171;-90
2022/06/30 07:49:51;;;;;;;2.58;1.42;;;;;;;35.20;28.64;99552.50;5052610;28;20025;-91
2022/06/30 07:52:16;;;;;;;4.80;2.05;;;;;;;34.95;28.80;99517.13;5053361;28;20041;-89
2022/06/30 07:54:42;;;;;;;3.22;1.70;;;;;;;35.23;27.97;99543.91;5053362;28;20021;-89
2022/06/30 07:57:07;;;;;;;3.40;1.67;;;;;;;35.40;26.27;99528.19;5053255;28;20025;-90
2022/06/30 07:59:33;;;;;;;3.25;2.33;;;;;;;35.08;27.73;99554.84;5053251;28;20029;-90
2022/06/30 08:02:00;;;;;;;2.85;1.50;;;;;;;35.09;28.47;99537.38;5035057;28;20095;-90
2022/06/30 08:04:26;;;;;;;3.70;1.70;;;;;;;35.17;27.46;99537.28;5035136;28;20028;-93
2022/06/30 08:06:51;;;;;;;4.05;2.03;;;;;;;34.82;27.33;99525.09;5053407;28;20033;-91
2022/06/30 08:09:19;;;;;;;3.90;2.08;;;;;;;34.92;27.19;99540.25;5051972;28;20506;-92
2022/06/30 08:11:45;;;;;;;2.70;1.83;;;;;;;35.26;28.73;99544.41;5052829;28;20503;-93
2022/06/30 08:14:11;;;;;;;4.07;2.00;;;;;;;35.09;27.57;99526.41;5052537;28;20048;-92
2022/06/30 08:16:36;;;;;;;4.40;2.33;;;;;;;35.53;28.12;99535.72;5051930;28;20028;-92
2022/06/30 08:19:03;;;;;;;4.15;2.63;;;;;;;35.49;29.45;99530.63;5014112;28;20484;-93
2022/06/30 08:21:29;;;;;;;3.05;2.17;;;;;;;35.50;28.65;99517.78;5033041;28;20464;-94
2022/06/30 08:23:55;;;;;;;3.15;2.13;;;;;;;36.09;28.46;99541.56;5033052;28;20025;-93
2022/06/30 08:26:20;;;;;;;3.30;1.92;;;;;;;35.80;27.86;99526.00;5041717;28;20039;-93
2022/06/30 08:28:46;;;;;;;3.53;2.10;;;;;;;35.59;28.10;99543.19;5052606;28;20029;-93
2022/06/30 08:31:12;;;;;;;4.00;1.88;;;;;;;35.58;27.96;99547.00;5052086;28;20032;-93
2022/06/30 08:33:38;;;;;;;2.58;1.67;;;;;;;35.58;28.02;99547.00;5034760;28;20041;-93
2022/06/30 08:36:04;;;;;;;2.97;1.83;;;;;;;35.64;27.00;99518.81;5034410;28;20494;-93
2022/06/30 08:38:29;;;;;;;2.60;1.58;;;;;;;35.89;27.38;99538.59;5034691;28;20086;-95
2022/06/30 08:43:45;;;;;;;1.42;1.10;;;;;;;35.98;26.16;99512.75;5052578;28;20110;-93
2022/06/30 08:46:12;;;;;;;2.13;1.38;;;;;;;36.18;28.09;99526.69;5052326;28;20029;-93
2022/06/30 08:48:38;;;;;;;3.05;1.50;;;;;;;36.09;26.48;99527.00;5051714;28;20037;-92
2022/06/30 08:51:06;;;;;;;2.88;1.90;;;;;;;36.32;27.59;99526.88;5034409;28;20552;-92
2022/06/30 08:53:45;;;;;;;2.38;1.58;;;;;;;36.05;27.13;99514.72;5033559;28;20035;-93
2022/06/30 08:56:12;;;;;;;3.35;1.77;;;;;;;35.74;27.98;99518.53;5051501;28;20037;-91
2022/06/30 08:58:39;;;;;;;3.45;2.00;;;;;;;36.13;26.84;99537.41;5051840;28;20068;-91
2022/06/30 09:01:05;;;;;;;2.15;1.67;;;;;;;35.96;27.44;99498.38;5034063;28;20029;-88
2022/06/30 09:03:32;;;;;;;2.53;1.73;;;;;;;35.98;27.14;99506.41;5051777;28;20029;-93
2022/06/30 09:05:58;;;;;;;2.72;1.67;;;;;;;36.30;26.28;99496.00;5051295;28;20540;-92
2022/06/30 09:08:26;;;;;;;2.92;1.63;;;;;;;36.62;26.58;99524.00;5034000;28;20041;-90
2022/06/30 09:10:54;;;;;;;3.45;2.47;;;;;;;36.11;26.91;99503.81;5051245;28;20036;-94
2022/06/30 09:13:20;;;;;;;2.75;2.00;;;;;;;36.01;27.41;99538.94;5033341;28;20467;-90
2022/06/30 09:15:48;;;;;;;2.97;1.50;;;;;;;36.12;27.72;99521.97;5051644;28;20033;-90
2022/06/30 09:18:25;;;;;;;2.10;1.45;;;;;;;36.51;25.57;99517.13;5051806;28;20479;-89
2022/06/30 09:20:51;;;;;;;3.97;1.52;;;;;;;36.52;27.11;99505.97;5051172;28;20029;-90
2022/06/30 09:23:30;;;;;;;3.17;1.77;;;;;;;36.74;26.62;99526.03;5052021;28;20414;-89
2022/06/30 09:26:01;;;;;;;5.40;1.67;;;;;;;36.29;27.06;99505.31;5051454;28;20566;-91
2022/06/30 09:28:44;;;;;;;3.50;1.60;;;;;;;36.32;26.52;99519.47;5051585;28;20020;-92
2022/06/30 09:31:12;;;;;;;2.97;1.92;;;;;;;36.09;26.83;99524.28;5051277;28;20036;-91
2022/06/30 09:33:39;;;;;;;2.20;1.65;;;;;;;35.94;29.51;99514.16;5051185;28;20117;-93
2022/06/30 09:36:18;;;;;;;4.10;2.35;;;;;;;36.31;27.18;99511.44;5032558;28;20033;-92
2022/06/30 09:39:03;;;;;;;2.63;1.90;;;;;;;35.45;27.14;99487.31;5034394;28;20025;-91
2022/06/30 09:41:31;;;;;;;2.33;2.00;;;;;;;35.98;28.98;99515.47;5031137;28;20198;-95
2022/06/30 09:43:57;;;;;;;3.20;1.75;;;;;;;36.37;27.76;99513.41;5051618;28;20036;-96
2022/06/30 09:46:22;;;;;;;3.42;1.55;;;;;;;36.68;25.33;99504.81;5033146;28;20410;-96
2022/06/30 09:48:48;;;;;;;4.57;1.85;;;;;;;36.33;29.45;99495.63;5033849;28;20039;-96
2022/06/30 09:51:13;;;;;;;3.45;2.35;;;;;;;36.13;28.48;99509.09;5032619;28;20033;-95
2022/06/30 09:53:39;;;;;;;4.47;2.08;;;;;;;36.26;29.56;99528.50;5049954;28;20495;-92
2022/06/30 09:56:16;;;;;;;2.63;1.90;;;;;;;36.36;31.29;99487.00;5051247;28;20108;-95
2022/06/30 09:58:42;;;;;;;2.33;1.65;;;;;;;36.57;28.29;99491.63;5048448;28;20049;-96
2022/06/30 10:01:10;;;;;;;3.92;2.17;;;;;;;36.36;26.98;99493.34;5033942;28;20483;-94
2022/06/30 10:03:48;;;;;;;2.42;1.50;;;;;;;36.97;28.15;99508.50;5033298;28;20036;-95
2022/06/30 10:06:16;;;;;;;3.53;1.77;;;;;;;36.49;29.66;99489.88;5050241;28;20516;-91
2022/06/30 10:08:42;;;;;;;2.92;2.05;;;;;;;36.15;26.84;99493.31;5031145;28;20048;-92
2022/06/30 10:11:08;;;;;;;3.15;1.88;;;;;;;36.24;27.88;99510.47;5032164;28;20060;-95
2022/06/30 10:13:36;;;;;;;3.10;1.90;;;;;;;36.44;26.88;99495.13;5016787;28;20025;-90
2022/06/30 10:16:04;;;;;;;4.47;2.28;;;;;;;35.90;28.10;99493.66;5053565;28;20060;-92
2022/06/30 10:18:32;;;;;;;4.18;2.17;;;;;;;35.22;27.99;99487.38;5034380;28;20029;-90
2022/06/30 10:20:59;;;;;;;2.92;1.80;;;;;;;35.25;27.94;99470.56;5033307;28;20064;-94
2022/06/30 10:23:25;;;;;;;2.83;1.70;;;;;;;35.87;28.18;99485.81;5049590;28;20124;-94
2022/06/30 10:25:54;;;;;;;3.15;2.05;;;;;;;35.72;26.66;99477.56;5049001;28;20451;-93
2022/06/30 10:28:21;;;;;;;2.58;1.75;;;;;;;35.52;26.98;99481.94;5050847;28;20021;-88
2022/06/30 10:31:05;;;;;;;2.97;1.73;;;;;;;35.52;26.10;99492.91;5042398;28;20064;-88
2022/06/30 10:33:55;;;;;;;2.90;1.70;;;;;;;34.90;29.97;99484.81;5050292;28;20056;-95
2022/06/30 10:36:44;;;;;;;3.67;1.80;;;;;;;34.77;29.37;99476.34;5032857;28;20071;-96
2022/06/30 10:39:53;;;;;;;2.85;1.83;;;;;;;35.54;28.31;99466.16;5034370;28;20068;-94
2022/06/30 10:42:41;;;;;;;2.50;1.65;;;;;;;35.95;26.36;99477.44;4938218;29;20457;-89
2022/06/30 10:45:26;;;;;;;2.95;1.90;;;;;;;35.90;27.27;99476.31;5048619;28;20041;-92
2022/06/30 10:48:02;;;;;;;3.45;2.50;;;;;;;35.53;26.52;99476.28;5037042;28;20025;-88
2022/06/30 10:50:36;;;;;;;2.40;1.45;;;;;;;35.97;27.88;99466.28;5055287;28;20097;-96
2022/06/30 10:53:07;;;;;;;2.85;1.70;;;;;;;35.92;26.84;99463.28;5037381;28;20040;-95
2022/06/30 10:55:54;;;;;;;3.17;1.67;;;;;;;35.72;27.70;99438.31;5037064;28;20029;-88
2022/06/30 10:58:21;;;;;;;2.75;1.52;;;;;;;35.61;28.57;99478.91;5036284;28;20047;-93
2022/06/30 11:00:56;;;;;;;4.10;2.30;;;;;;;36.32;28.24;99444.53;5036617;28;20128;-90
2022/06/30 11:03:49;;;;;;;;;;;;;;;35.77;26.94;99466.88;5055306;28;20032;-93
2022/06/30 11:06:16;;;;;;;;;;;;;;;36.03;27.09;99462.75;5051835;28;19952;-90
2022/06/30 11:08:52;;;;;;;3.25;1.90;;;;;;;35.80;26.54;99474.72;5036463;28;19995;-90
2022/06/30 11:11:20;;;;;;;2.60;1.60;;;;;;;35.94;26.78;99459.28;5048445;28;20020;-91
2022/06/30 11:14:15;;;;;;;2.58;1.83;;;;;;;35.57;26.15;99439.19;5055909;28;20484;-95
2022/06/30 11:16:40;;;;;;;2.63;1.58;;;;;;;35.48;26.34;99438.47;5056414;28;20029;-92
2022/06/30 11:19:20;;;;;;;4.57;1.67;;;;;;;35.72;25.53;99446.56;5038744;28;20514;-94
2022/06/30 11:21:45;;;;;;;3.20;2.20;;;;;;;36.10;25.77;99446.34;5038984;28;20043;-96
2022/06/30 11:24:14;;;;;;;2.05;1.52;;;;;;;35.91;25.30;99447.84;5037117;28;20123;-92
2022/06/30 11:29:26;;;;;;;;;;;;;;;36.61;24.12;99445.38;5054822;28;20094;-95
2022/06/30 11:31:58;;;;;;;4.15;1.98;;;;;;;35.13;25.64;99386.09;5036224;28;19913;-94
2022/06/30 11:34:24;;;;;;;2.85;1.30;;;;;;;35.36;25.22;99439.13;5036176;28;20075;-93
2022/06/30 11:36:50;;;;;;;2.30;1.45;;;;;;;35.83;26.01;99394.78;5036016;28;20025;-94
2022/06/30 11:39:18;;;;;;;2.45;1.55;;;;;;;36.10;27.51;99417.03;5036704;28;20035;-94
2022/06/30 11:42:06;;;;;;;1.90;1.17;;;;;;;35.75;24.99;99424.22;5056577;28;20179;-94
2022/06/30 11:44:40;;;;;;;2.83;1.80;;;;;;;35.89;25.87;99400.56;5036530;28;20044;-92
2022/06/30 11:47:13;;;;;;;3.65;1.75;;;;;;;35.54;25.48;99427.75;5055711;28;20037;-94
2022/06/30 11:49:46;;;;;;;2.08;1.30;;;;;;;35.95;25.80;99414.34;5037418;28;20592;-92